Time;durP1;ratioP1;P1;durP2;ratioP2;P2;SDS_P1;SDS_P2;PMS_P1;PMS_P2;Temp;Humidity;BMP_temperature;BMP_pressure;BME280_temperature;BME280_humidity;BME280_pressure;Samples;Min_cycle;Max_cycle;Signal;HPM_P1;HPM_P2
2021/07/20 00:00:43;;;;;;;35.10;13.52;;;;;;;16.91;65.58;102121.13;4814856;29;20058;-38
2021/07/20 00:03:10;;;;;;;32.42;11.95;;;;;;;16.90;65.89;102125.59;4813850;29;20055;-38
2021/07/20 00:05:39;;;;;;;39.67;13.48;;;;;;;16.86;66.40;102126.09;4816066;29;20085;-38
2021/07/20 00:08:06;;;;;;;36.03;13.27;;;;;;;16.78;66.33;102126.84;4804893;29;20061;-38
2021/07/20 00:10:36;;;;;;;30.98;12.45;;;;;;;16.78;66.21;102138.25;4809712;29;20058;-38
2021/07/20 00:13:05;;;;;;;36.90;12.05;;;;;;;16.75;66.66;102127.94;4807933;29;20169;-38
2021/07/20 00:15:33;;;;;;;38.03;13.40;;;;;;;16.73;66.74;102126.44;4816499;29;20137;-38
2021/07/20 00:18:05;;;;;;;36.35;14.05;;;;;;;16.70;67.01;102129.41;4810523;29;20082;-38
2021/07/20 00:20:31;;;;;;;38.65;13.23;;;;;;;16.72;67.15;102132.72;4818531;29;20086;-38
2021/07/20 00:22:58;;;;;;;35.53;13.57;;;;;;;16.67;66.79;102130.53;4812748;29;20065;-38
2021/07/20 00:25:24;;;;;;;44.42;13.98;;;;;;;16.71;66.50;102133.72;4812274;29;20490;-38
2021/07/20 00:27:51;;;;;;;37.67;14.07;;;;;;;16.61;67.21;102129.34;4819172;29;20050;-38
2021/07/20 00:30:18;;;;;;;37.65;13.18;;;;;;;16.62;67.21;102132.81;4813578;29;20058;-38
2021/07/20 00:32:45;;;;;;;40.38;14.10;;;;;;;16.55;67.66;102132.63;4822037;29;20089;-38
2021/07/20 00:35:12;;;;;;;37.13;14.60;;;;;;;16.54;67.58;102130.13;4818590;29;20157;-38
2021/07/20 00:37:40;;;;;;;36.47;14.60;;;;;;;16.46;68.24;102133.53;4817702;29;20560;-38
2021/07/20 00:40:10;;;;;;;41.45;14.80;;;;;;;16.45;68.05;102131.88;4812757;29;20062;-38
2021/07/20 00:42:37;;;;;;;38.17;14.00;;;;;;;16.43;68.28;102127.72;4815154;29;20137;-38
2021/07/20 00:45:06;;;;;;;40.20;14.32;;;;;;;16.41;68.52;102130.53;4818374;29;20141;-38
2021/07/20 00:47:33;;;;;;;42.83;15.50;;;;;;;16.36;68.08;102127.50;4813365;29;20137;-38
2021/07/20 00:50:00;;;;;;;44.40;14.88;;;;;;;16.32;68.40;102126.97;4817783;29;20131;-38
2021/07/20 00:52:26;;;;;;;44.80;14.65;;;;;;;16.27;68.91;102129.25;4807301;29;20062;-38
2021/07/20 00:54:53;;;;;;;45.90;15.07;;;;;;;16.23;69.14;102125.25;4818554;29;20542;-38
2021/07/20 00:57:20;;;;;;;45.58;15.02;;;;;;;16.20;68.93;102121.06;4813821;29;20068;-38
2021/07/20 00:59:46;;;;;;;49.50;16.02;;;;;;;16.20;69.14;102123.72;4818413;29;20142;-38
2021/07/20 01:02:13;;;;;;;53.10;14.93;;;;;;;16.16;69.62;102126.81;4813924;29;20547;-38
2021/07/20 01:04:40;;;;;;;53.58;15.07;;;;;;;16.12;69.80;102121.00;4815540;29;20062;-38
2021/07/20 01:07:08;;;;;;;47.60;15.35;;;;;;;16.14;69.11;102115.56;4815695;29;20090;-38
2021/07/20 01:09:35;;;;;;;53.92;15.95;;;;;;;16.11;69.93;102110.56;4813475;29;20066;-38
2021/07/20 01:12:02;;;;;;;46.35;15.63;;;;;;;16.09;69.73;102110.72;4818591;29;20090;-38
2021/07/20 01:14:28;;;;;;;46.45;15.23;;;;;;;16.06;69.98;102118.13;4814249;29;20555;-38
2021/07/20 01:16:56;;;;;;;48.53;14.90;;;;;;;16.05;69.75;102106.69;4818206;29;20210;-38
2021/07/20 01:19:29;;;;;;;49.35;15.68;;;;;;;15.98;70.07;102117.06;4799229;29;20073;-38
2021/07/20 01:22:00;;;;;;;45.47;15.07;;;;;;;15.99;69.35;102113.44;4813211;29;20774;-38
2021/07/20 01:24:27;;;;;;;46.88;15.18;;;;;;;15.97;69.62;102115.38;4813051;29;20811;-38
2021/07/20 01:26:54;;;;;;;50.40;16.73;;;;;;;15.92;70.33;102116.84;4818501;29;20185;-38
2021/07/20 01:29:22;;;;;;;50.58;16.10;;;;;;;15.89;70.51;102110.00;4818532;29;20118;-38
2021/07/20 01:31:50;;;;;;;;;;;;;;;15.91;70.48;102109.88;4810275;29;20101;-38
2021/07/20 01:34:18;;;;;;;53.10;15.32;;;;;;;15.89;70.73;102110.00;4811638;29;19939;-38
2021/07/20 01:36:47;;;;;;;51.05;15.40;;;;;;;15.92;70.09;102115.03;4813077;29;20050;-38
2021/07/20 01:39:14;;;;;;;52.05;17.00;;;;;;;15.88;70.68;102110.19;4818227;29;20483;-38
2021/07/20 01:41:42;;;;;;;49.50;16.38;;;;;;;15.84;70.18;102106.16;4812750;29;20090;-38
2021/07/20 01:44:11;;;;;;;51.90;15.87;;;;;;;15.89;70.99;102115.31;4819730;29;20137;-38
2021/07/20 01:46:39;;;;;;;53.45;15.88;;;;;;;15.89;70.96;102112.66;4812533;29;20364;-38
2021/07/20 01:49:11;;;;;;;54.60;15.93;;;;;;;15.86;71.06;102112.97;4811249;29;20935;-38
2021/07/20 01:51:39;;;;;;;52.53;16.08;;;;;;;15.95;70.89;102114.69;4817640;29;20142;-38
2021/07/20 01:54:07;;;;;;;58.15;17.05;;;;;;;15.96;70.79;102110.25;4812165;29;20090;-38
2021/07/20 01:56:34;;;;;;;58.60;15.82;;;;;;;15.93;70.41;102114.03;4818399;29;20099;-38
2021/07/20 01:59:00;;;;;;;59.58;16.45;;;;;;;15.89;70.51;102110.00;4810292;29;20157;-38
2021/07/20 02:01:32;;;;;;;53.65;15.95;;;;;;;15.75;71.39;102115.81;4813415;29;20150;-38
2021/07/20 02:09:29;;;;;;;54.22;16.73;;;;;;;15.62;72.00;102111.69;4815041;29;20090;-37
2021/07/20 02:11:57;;;;;;;70.32;16.85;;;;;;;15.58;72.17;102115.63;4812125;29;20062;-37
2021/07/20 02:14:31;;;;;;;60.63;16.13;;;;;;;15.60;72.16;102116.31;4814880;29;20062;-37
2021/07/20 02:17:01;;;;;;;61.33;18.08;;;;;;;15.55;72.35;102115.91;4810592;29;20153;-38
2021/07/20 02:19:35;;;;;;;61.17;16.25;;;;;;;15.58;72.05;102112.13;4810868;29;20141;-38
2021/07/20 02:22:04;;;;;;;66.85;17.15;;;;;;;15.60;71.55;102110.16;4810914;29;20742;-38
2021/07/20 02:24:34;;;;;;;55.97;15.90;;;;;;;15.49;71.54;102107.75;4830929;29;20498;-38
2021/07/20 02:27:05;;;;;;;59.33;17.38;;;;;;;15.60;71.60;102115.44;4809197;29;20459;-38
2021/07/20 02:29:33;;;;;;;59.28;17.42;;;;;;;15.49;71.63;102108.56;4815674;29;20500;-38
2021/07/20 02:32:03;;;;;;;59.58;18.10;;;;;;;15.44;72.23;102105.53;4812984;29;20414;-38
2021/07/20 02:34:34;;;;;;;67.38;18.02;;;;;;;15.38;72.77;102111.41;4817139;29;20141;-38
2021/07/20 02:37:02;;;;;;;55.95;17.60;;;;;;;15.40;72.73;102112.91;4817505;29;20153;-38
2021/07/20 02:39:29;;;;;;;53.90;18.27;;;;;;;15.43;72.35;102109.97;4808651;29;20058;-38
2021/07/20 02:41:55;;;;;;;59.53;16.85;;;;;;;15.38;72.21;102111.41;4812909;29;20436;-38
2021/07/20 02:44:24;;;;;;;68.82;17.85;;;;;;;15.34;72.24;102115.31;4810419;29;20081;-38
2021/07/20 02:46:51;;;;;;;60.70;18.73;;;;;;;15.35;72.14;102109.88;4823646;29;20100;-38
2021/07/20 02:49:18;;;;;;;61.30;17.07;;;;;;;15.29;72.32;102112.25;4811472;29;20093;-37
2021/07/20 02:51:46;;;;;;;60.65;17.92;;;;;;;15.27;71.85;102106.28;4816713;29;20133;-37
2021/07/20 02:54:17;;;;;;;60.78;17.05;;;;;;;15.15;73.63;102101.22;4813597;29;20134;-37
2021/07/20 02:56:44;;;;;;;59.13;16.30;;;;;;;15.13;72.88;102113.75;4810892;29;20053;-37
2021/07/20 02:59:14;;;;;;;67.18;17.88;;;;;;;15.16;73.72;102099.41;4820894;29;20144;-37
2021/07/20 03:01:42;;;;;;;54.30;16.42;;;;;;;15.15;73.13;102111.78;4810217;29;20487;-37
2021/07/20 03:04:09;;;;;;;61.80;16.02;;;;;;;15.10;72.97;102107.91;4817079;29;20157;-37
2021/07/20 03:06:39;;;;;;;61.92;16.65;;;;;;;15.08;73.28;102108.03;4811065;29;20054;-37
2021/07/20 03:09:08;;;;;;;54.65;16.20;;;;;;;15.05;73.59;102110.13;4811092;29;20115;-37
2021/07/20 03:11:39;;;;;;;55.72;17.02;;;;;;;15.01;73.58;102107.81;4809942;29;20137;-38
2021/07/20 03:14:12;;;;;;;56.65;17.85;;;;;;;14.92;74.26;102113.13;4815453;29;20140;-37
2021/07/20 03:16:41;;;;;;;62.88;16.88;;;;;;;14.93;74.04;102114.78;4817695;29;20050;-37
2021/07/20 03:19:10;;;;;;;59.97;16.48;;;;;;;14.96;73.67;102120.59;4811159;29;20054;-37
2021/07/20 03:21:39;;;;;;;51.25;14.80;;;;;;;14.91;73.54;102112.25;4812225;29;20144;-37
2021/07/20 03:24:08;;;;;;;66.25;18.50;;;;;;;14.94;73.83;102119.09;4818083;29;20527;-37
2021/07/20 03:26:35;;;;;;;;;;;;;;;14.96;73.10;102119.78;4817286;29;20556;-37
2021/07/20 03:29:05;;;;;;;56.17;16.67;;;;;;;14.85;73.78;102118.13;4810624;29;19935;-37
2021/07/20 03:31:36;;;;;;;56.40;16.42;;;;;;;14.85;73.37;102120.75;4816155;29;20523;-38
2021/07/20 03:34:05;;;;;;;50.58;16.15;;;;;;;14.77;73.42;102120.66;4804293;29;20471;-37
2021/07/20 03:36:32;;;;;;;;;;;;;;;14.82;73.06;102118.44;4810701;29;20088;-37
2021/07/20 03:39:00;;;;;;;55.72;16.52;;;;;;;14.79;73.29;102118.69;4816068;29;20032;-37
2021/07/20 03:41:28;;;;;;;59.28;17.90;;;;;;;14.75;73.61;102117.31;4810121;29;20087;-37
2021/07/20 03:43:55;;;;;;;54.95;15.48;;;;;;;14.76;73.73;102117.19;4816303;29;20589;-37
2021/07/20 03:46:23;;;;;;;54.70;16.05;;;;;;;14.81;73.02;102120.22;4811437;29;20157;-37
2021/07/20 03:48:53;;;;;;;52.08;16.15;;;;;;;14.89;73.33;102121.31;4812579;29;20066;-37
2021/07/20 03:51:21;;;;;;;57.80;16.02;;;;;;;14.87;72.94;102120.63;4806356;29;20082;-37
2021/07/20 03:53:48;;;;;;;;;;;;;;;14.85;73.16;102119.94;4817147;29;20050;-37
2021/07/20 03:56:16;;;;;;;51.55;15.68;;;;;;;14.88;72.23;102122.28;4811418;29;20813;-37
2021/07/20 03:58:44;;;;;;;58.35;17.75;;;;;;;14.86;72.72;102117.16;4827986;29;20580;-37
2021/07/20 04:01:11;;;;;;;62.53;17.35;;;;;;;14.87;72.58;102120.63;4828604;29;20090;-37
2021/07/20 04:03:39;;;;;;;58.53;17.70;;;;;;;14.86;73.23;102122.44;4809198;29;20058;-37
2021/07/20 04:06:11;;;;;;;49.65;15.15;;;;;;;15.01;71.91;102118.38;4818123;29;20148;-37
2021/07/20 04:08:38;;;;;;;57.85;15.82;;;;;;;15.06;71.78;102125.03;4808825;29;20162;-37
2021/07/20 04:11:06;;;;;;;54.73;16.20;;;;;;;15.07;71.76;102118.75;4822331;29;20496;-38
2021/07/20 04:13:35;;;;;;;49.00;16.30;;;;;;;15.10;71.68;102123.75;4814988;29;20293;-38
2021/07/20 04:16:09;;;;;;;56.95;16.67;;;;;;;15.11;71.95;102123.63;4815976;29;20093;-38
2021/07/20 04:18:37;;;;;;;46.28;15.65;;;;;;;15.16;71.15;102123.19;4810616;29;20444;-38
2021/07/20 04:21:05;;;;;;;49.28;16.15;;;;;;;15.20;71.64;102127.19;4818208;29;20165;-38
2021/07/20 04:23:33;;;;;;;47.65;15.88;;;;;;;15.29;71.08;102123.69;4821100;29;20126;-38
2021/07/20 04:26:00;;;;;;;52.15;16.70;;;;;;;15.27;71.28;102120.38;4812382;29;20140;-38
2021/07/20 04:28:28;;;;;;;52.30;16.38;;;;;;;15.30;70.55;102119.22;4819177;29;20141;-37
2021/07/20 04:30:57;;;;;;;46.40;15.38;;;;;;;15.29;70.54;102123.69;4809615;29;20162;-37
2021/07/20 04:33:28;;;;;;;55.15;16.88;;;;;;;15.33;70.75;102119.78;4815965;29;20058;-38
2021/07/20 04:35:56;;;;;;;49.85;15.65;;;;;;;15.36;70.27;102121.28;4808246;29;20070;-38
2021/07/20 04:38:27;;;;;;;48.80;14.70;;;;;;;15.35;70.61;102117.81;4819483;29;20141;-37
2021/07/20 04:40:53;;;;;;;58.80;15.98;;;;;;;15.41;70.55;102127.81;4812634;29;20056;-37
2021/07/20 04:43:20;;;;;;;56.92;15.52;;;;;;;15.57;70.13;102132.47;4816071;29;20093;-37
2021/07/20 04:45:49;;;;;;;42.08;15.18;;;;;;;15.59;69.68;102122.56;4813028;29;20138;-37
2021/07/20 04:48:17;;;;;;;41.95;14.00;;;;;;;15.54;69.72;102134.56;4813076;29;20060;-38
2021/07/20 04:50:44;;;;;;;46.87;13.90;;;;;;;15.62;69.13;102132.00;4812241;29;20055;-38
2021/07/20 04:53:13;;;;;;;48.85;14.85;;;;;;;15.67;68.95;102142.97;4810890;29;20154;-38
2021/07/20 04:55:40;;;;;;;44.70;14.48;;;;;;;15.70;68.94;102134.78;4819156;29;20625;-38
2021/07/20 04:58:07;;;;;;;48.20;14.73;;;;;;;15.81;68.86;102133.75;4809334;29;20161;-38
2021/07/20 05:00:35;;;;;;;49.53;15.05;;;;;;;15.85;68.06;102134.28;4816811;29;20145;-37
2021/07/20 05:03:04;;;;;;;46.10;13.57;;;;;;;15.91;68.15;102137.16;4818447;29;20050;-37
2021/07/20 05:05:37;;;;;;;41.65;13.27;;;;;;;16.00;67.88;102143.38;4812820;29;20058;-38
2021/07/20 05:08:05;;;;;;;47.25;15.55;;;;;;;15.90;68.31;102142.63;4818254;29;20161;-38
2021/07/20 05:10:33;;;;;;;36.17;12.95;;;;;;;15.82;68.67;102135.44;4808774;29;20133;-38
2021/07/20 05:13:00;;;;;;;44.10;13.47;;;;;;;15.74;68.86;102143.25;4817931;29;20522;-38
2021/07/20 05:15:27;;;;;;;44.60;14.60;;;;;;;15.69;69.29;102146.31;4817354;29;20058;-37
2021/07/20 05:17:57;;;;;;;42.40;13.93;;;;;;;15.71;69.16;102141.72;4818478;29;20401;-37
2021/07/20 05:20:25;;;;;;;39.40;13.02;;;;;;;15.70;69.19;102145.34;4815433;29;20145;-37
2021/07/20 05:22:52;;;;;;;39.07;12.67;;;;;;;15.78;68.82;102139.34;4822292;29;20146;-37
2021/07/20 05:25:19;;;;;;;42.47;12.73;;;;;;;15.93;67.84;102139.66;4815828;29;20123;-37
2021/07/20 05:27:49;;;;;;;36.17;11.80;;;;;;;15.90;68.38;102139.97;4813746;29;20101;-37
2021/07/20 05:30:17;;;;;;;42.33;13.32;;;;;;;15.93;68.39;102134.38;4818297;29;20104;-37
2021/07/20 05:32:45;;;;;;;38.15;13.23;;;;;;;16.05;67.98;102143.75;4811678;29;20471;-37
2021/07/20 05:35:14;;;;;;;41.60;13.38;;;;;;;16.16;67.55;102135.59;4816639;29;20418;-37
2021/07/20 05:37:42;;;;;;;34.67;13.13;;;;;;;16.15;67.81;102136.59;4806288;29;20169;-38
2021/07/20 05:40:18;;;;;;;34.42;12.90;;;;;;;16.19;67.04;102142.38;4817067;29;20090;-38
2021/07/20 05:42:45;;;;;;;39.88;12.80;;;;;;;16.27;67.60;102136.34;4814145;29;20489;-38
2021/07/20 05:45:13;;;;;;;36.28;12.48;;;;;;;16.35;66.39;102141.72;4818595;29;20515;-38
2021/07/20 05:47:45;;;;;;;39.13;12.23;;;;;;;16.41;66.46;102141.94;4814845;29;20144;-37
2021/07/20 05:50:13;;;;;;;39.42;13.63;;;;;;;16.43;66.91;102147.09;4813757;29;20114;-37
2021/07/20 05:52:47;;;;;;;38.42;12.25;;;;;;;16.49;66.80;102140.34;4826214;29;20656;-37
2021/07/20 05:55:14;;;;;;;37.78;12.32;;;;;;;16.57;65.69;102141.25;4812082;29;20428;-38
2021/07/20 05:57:48;;;;;;;37.03;13.05;;;;;;;16.54;65.76;102144.22;4818436;29;20485;-38
2021/07/20 06:00:20;;;;;;;35.47;11.70;;;;;;;16.58;66.18;102147.34;4812675;29;20124;-38
2021/07/20 06:02:47;;;;;;;33.45;11.85;;;;;;;16.67;65.18;102141.16;4814920;29;20082;-38
2021/07/20 06:05:15;;;;;;;30.97;11.53;;;;;;;16.70;65.76;102143.50;4809414;29;20089;-38
2021/07/20 06:07:44;;;;;;;37.65;13.07;;;;;;;16.75;63.65;102145.69;4821043;29;20141;-38
2021/07/20 06:10:14;;;;;;;36.30;12.75;;;;;;;16.84;64.61;102149.22;4813620;29;20058;-38
2021/07/20 06:12:42;;;;;;;33.40;12.30;;;;;;;16.76;64.61;102150.81;4816614;29;20066;-38
2021/07/20 06:15:10;;;;;;;35.53;10.90;;;;;;;16.57;66.12;102154.47;4818222;29;21114;-38
2021/07/20 06:17:37;;;;;;;33.77;12.50;;;;;;;16.50;65.60;102158.72;4809205;29;20777;-38
2021/07/20 06:20:04;;;;;;;32.88;11.45;;;;;;;16.48;66.27;102154.56;4812676;29;20157;-38
2021/07/20 06:22:33;;;;;;;34.00;11.48;;;;;;;16.49;65.63;102157.06;4814526;29;20092;-38
2021/07/20 06:25:03;;;;;;;31.80;11.32;;;;;;;16.51;65.72;102160.41;4822042;29;20148;-38
2021/07/20 06:27:30;;;;;;;30.00;11.38;;;;;;;16.53;66.38;102161.06;4812480;29;20054;-38
2021/07/20 06:29:59;;;;;;;33.80;11.40;;;;;;;16.54;65.71;102164.53;4817516;29;20178;-38
2021/07/20 06:32:30;;;;;;;;;;;;;;;16.59;66.48;102163.09;4811027;29;20558;-37
2021/07/20 06:34:57;;;;;;;30.67;10.93;;;;;;;16.58;65.03;102161.47;4811059;29;19930;-37
2021/07/20 06:37:26;;;;;;;34.08;11.50;;;;;;;16.59;65.71;102162.28;4817136;29;20094;-37
2021/07/20 06:39:54;;;;;;;46.95;11.70;;;;;;;16.66;65.03;102165.13;4811563;29;20062;-38
2021/07/20 06:42:22;;;;;;;42.83;11.98;;;;;;;16.67;64.94;102162.34;4814974;29;20073;-38
2021/07/20 06:44:49;;;;;;;27.58;10.20;;;;;;;16.71;64.09;102170.81;4809243;29;20585;-37
2021/07/20 06:47:17;;;;;;;32.72;10.82;;;;;;;16.76;63.99;102171.19;4814817;29;20405;-38
2021/07/20 06:49:48;;;;;;;35.67;12.65;;;;;;;16.79;64.45;102169.03;4821842;29;20050;-41
2021/07/20 06:52:16;;;;;;;32.78;11.23;;;;;;;16.86;65.54;102171.13;4818648;29;20085;-38
2021/07/20 06:54:44;;;;;;;30.40;11.37;;;;;;;16.89;65.13;102171.63;4817271;29;20621;-39
2021/07/20 06:57:14;;;;;;;30.05;11.15;;;;;;;16.95;64.65;102180.78;4811551;29;20093;-37
2021/07/20 06:59:42;;;;;;;37.78;11.52;;;;;;;16.98;64.50;102173.34;4810795;29;20062;-38
2021/07/20 07:02:15;;;;;;;31.03;11.17;;;;;;;17.06;64.20;102182.38;4810874;29;20149;-38
2021/07/20 07:04:49;;;;;;;38.90;12.45;;;;;;;17.07;63.41;102184.00;4829569;29;20058;-38
2021/07/20 07:07:18;;;;;;;37.30;13.50;;;;;;;17.15;64.24;102176.09;4812163;29;20145;-38
2021/07/20 07:09:46;;;;;;;40.25;13.98;;;;;;;17.21;63.71;102180.81;4816350;29;20093;-38
2021/07/20 07:12:13;;;;;;;37.60;12.77;;;;;;;17.27;64.13;102180.16;4807201;29;20081;-39
2021/07/20 07:14:41;;;;;;;;;;;;;;;17.32;63.37;102179.69;4816025;29;20058;-39
2021/07/20 07:17:08;;;;;;;29.15;10.35;;;;;;;17.37;62.91;102182.72;4807204;29;19980;-39
2021/07/20 07:19:36;;;;;;;38.92;12.30;;;;;;;17.39;63.46;102184.19;4810650;29;20098;-39
2021/07/20 07:22:04;;;;;;;29.30;11.40;;;;;;;17.42;63.39;102188.34;4815597;29;20137;-39
2021/07/20 07:24:31;;;;;;;36.78;12.20;;;;;;;17.44;62.35;102189.03;4810113;29;20157;-39
2021/07/20 07:27:00;;;;;;;35.40;12.05;;;;;;;17.48;62.57;102190.38;4810409;29;21111;-39
2021/07/20 07:29:27;;;;;;;37.45;12.98;;;;;;;17.57;62.77;102194.72;4811324;29;20085;-39
2021/07/20 07:31:54;;;;;;;47.90;15.32;;;;;;;17.57;62.67;102200.03;4815333;29;20147;-39
2021/07/20 07:34:22;;;;;;;37.70;13.48;;;;;;;17.63;62.35;102193.25;4819577;29;20092;-39
2021/07/20 07:36:49;;;;;;;33.65;11.52;;;;;;;17.70;60.85;102193.44;4811000;29;20137;-39
2021/07/20 07:39:16;;;;;;;37.10;13.17;;;;;;;17.88;60.16;102198.72;4813533;29;20085;-39
2021/07/20 07:41:45;;;;;;;39.78;14.07;;;;;;;17.89;60.18;102198.53;4805837;29;20149;-39
2021/07/20 07:44:15;;;;;;;33.80;11.65;;;;;;;17.97;60.63;102197.72;4818482;29;20413;-39
2021/07/20 07:46:43;;;;;;;35.92;12.32;;;;;;;18.02;59.25;102198.06;4810712;29;20165;-39
2021/07/20 07:49:11;;;;;;;40.40;13.02;;;;;;;18.10;59.49;102191.97;4816060;29;20054;-39
2021/07/20 07:51:43;;;;;;;30.75;10.93;;;;;;;18.13;58.65;102194.25;4811784;29;20351;-39
2021/07/20 07:54:11;;;;;;;30.92;11.43;;;;;;;18.15;57.86;102189.63;4807514;29;20097;-39
2021/07/20 07:56:38;;;;;;;29.08;10.25;;;;;;;18.14;57.24;102185.31;4817011;29;20209;-39
2021/07/20 07:59:08;;;;;;;31.83;12.45;;;;;;;18.25;58.11;102182.34;4810674;29;20519;-39
2021/07/20 08:01:42;;;;;;;30.02;10.90;;;;;;;18.33;56.96;102184.19;4815479;29;20086;-39
2021/07/20 08:04:09;;;;;;;34.03;12.13;;;;;;;18.36;55.82;102186.50;4810495;29;20050;-39
2021/07/20 08:06:37;;;;;;;35.15;12.98;;;;;;;18.37;56.14;102180.22;4824097;29;20089;-40
2021/07/20 08:09:11;;;;;;;32.05;11.88;;;;;;;18.45;56.54;102182.88;4806356;29;20064;-39
2021/07/20 08:11:41;;;;;;;37.55;13.13;;;;;;;18.50;56.83;102185.03;4815853;29;20094;-39
2021/07/20 08:14:08;;;;;;;34.90;12.32;;;;;;;18.55;54.93;102186.19;4808671;29;20058;-40
2021/07/20 08:16:42;;;;;;;27.77;10.68;;;;;;;18.55;53.62;102185.38;4815937;29;20150;-39
2021/07/20 08:19:09;;;;;;;32.08;12.30;;;;;;;18.64;54.85;102186.19;4812823;29;20487;-39
2021/07/20 08:21:36;;;;;;;35.30;12.95;;;;;;;18.69;54.58;102184.69;4804858;29;20050;-39
2021/07/20 08:24:03;;;;;;;33.05;12.02;;;;;;;18.83;54.59;102188.53;4815802;29;20141;-39
2021/07/20 08:26:39;;;;;;;36.00;13.15;;;;;;;18.92;54.41;102190.19;4809088;29;20897;-39
2021/07/20 08:29:11;;;;;;;32.63;12.75;;;;;;;19.06;53.49;102193.16;4807006;29;20133;-39
2021/07/20 08:31:41;;;;;;;30.38;11.95;;;;;;;19.13;53.54;102200.31;4812557;29;20145;-39
2021/07/20 08:34:11;;;;;;;30.33;10.95;;;;;;;19.35;54.59;102190.75;4810518;29;20073;-39
2021/07/20 08:36:40;;;;;;;32.78;12.30;;;;;;;19.52;53.42;102196.00;4807895;29;20086;-39
2021/07/20 08:39:10;;;;;;;35.58;11.48;;;;;;;19.71;51.42;102192.97;4815789;29;20664;-39
2021/07/20 08:42:04;;;;;;;28.98;11.57;;;;;;;20.11;51.83;102199.09;4815874;29;20604;-39
2021/07/20 08:44:43;;;;;;;32.58;11.45;;;;;;;20.58;51.70;102199.94;4810494;29;20592;-39
2021/07/20 08:47:21;;;;;;;29.10;10.93;;;;;;;20.85;49.99;102193.19;4815134;29;20474;-39
2021/07/20 08:50:29;;;;;;;37.20;12.27;;;;;;;21.33;49.65;102196.38;4812117;29;20145;-39
2021/07/20 08:53:17;;;;;;;30.75;12.60;;;;;;;21.78;49.07;102201.69;4819999;29;20106;-39
2021/07/20 08:55:49;;;;;;;35.22;12.48;;;;;;;22.02;47.25;102187.16;4818688;29;20149;-39
2021/07/20 08:58:31;;;;;;;35.15;12.82;;;;;;;22.01;48.40;102187.34;4824024;29;20138;-39
2021/07/20 09:01:12;;;;;;;38.10;13.02;;;;;;;22.38;47.96;102191.66;4821584;29;20546;-39
2021/07/20 09:03:47;;;;;;;34.67;12.27;;;;;;;22.68;45.53;102189.66;4818576;29;20478;-39
2021/07/20 09:06:26;;;;;;;33.03;10.95;;;;;;;22.95;45.70;102195.19;4823519;29;20152;-39
2021/07/20 09:09:14;;;;;;;28.92;12.18;;;;;;;23.20;44.69;102198.28;4827040;29;20165;-39
2021/07/20 09:11:45;;;;;;;29.13;12.45;;;;;;;23.51;44.62;102196.19;4809354;29;20127;-39
2021/07/20 09:14:57;;;;;;;37.70;12.73;;;;;;;23.73;43.05;102200.38;4812458;29;20062;-38
2021/07/20 09:17:49;;;;;;;34.92;12.05;;;;;;;23.86;43.73;102199.63;4807054;29;20909;-39
2021/07/20 09:20:26;;;;;;;29.02;11.65;;;;;;;24.08;42.24;102201.13;4818618;29;20089;-39
2021/07/20 09:23:26;;;;;;;29.73;12.32;;;;;;;24.34;42.39;102199.50;4811632;29;20461;-39
2021/07/20 09:26:11;;;;;;;36.85;13.23;;;;;;;24.46;40.84;102200.56;4812070;29;20088;-39
2021/07/20 09:29:12;;;;;;;31.52;11.85;;;;;;;24.69;41.63;102210.09;4809059;29;20750;-39
2021/07/20 09:31:47;;;;;;;37.00;12.10;;;;;;;24.35;40.59;102206.53;4819207;29;20141;-39
2021/07/20 09:34:48;;;;;;;32.42;13.15;;;;;;;23.96;41.22;102201.94;4806982;29;20066;-39
2021/07/20 09:37:33;;;;;;;36.60;12.55;;;;;;;23.75;41.82;102197.50;4816884;29;20137;-39
2021/07/20 09:40:22;;;;;;;35.05;13.25;;;;;;;23.62;42.66;102196.44;4806485;29;20054;-39
2021/07/20 09:43:00;;;;;;;36.50;12.48;;;;;;;23.95;43.61;102201.09;4809041;29;20046;-39
2021/07/20 09:45:32;;;;;;;35.50;14.05;;;;;;;23.97;41.82;102199.06;4812053;29;20428;-39
2021/07/20 09:48:26;;;;;;;36.08;13.52;;;;;;;23.64;42.45;102199.75;4818000;29;20054;-39
2021/07/20 09:51:09;;;;;;;31.90;12.98;;;;;;;23.92;43.32;102198.00;4810052;29;20054;-39
2021/07/20 09:54:15;;;;;;;30.45;12.38;;;;;;;24.27;40.85;102194.16;4814073;29;20575;-39
2021/07/20 09:57:00;;;;;;;37.72;13.05;;;;;;;24.61;40.97;102196.88;4792039;29;20149;-39
2021/07/20 09:59:46;;;;;;;36.70;13.32;;;;;;;24.91;41.36;102197.25;4817448;29;20630;-39
2021/07/20 10:02:34;;;;;;;37.60;13.27;;;;;;;25.20;40.44;102198.66;4809734;29;20058;-40
2021/07/20 10:05:07;;;;;;;33.38;13.77;;;;;;;25.30;38.96;102197.41;4814048;29;20062;-39
2021/07/20 10:07:39;;;;;;;32.70;14.07;;;;;;;25.41;39.12;102202.13;4808318;29;20062;-39
2021/07/20 10:10:16;;;;;;;32.97;12.98;;;;;;;25.45;38.13;102201.50;4824268;29;20058;-37
2021/07/20 10:13:01;;;;;;;32.83;13.63;;;;;;;25.74;38.91;102195.81;4811555;29;20112;-39
2021/07/20 10:15:48;;;;;;;30.13;12.60;;;;;;;25.92;38.31;102200.50;4808992;29;20054;-38
2021/07/20 10:18:24;;;;;;;31.83;13.00;;;;;;;26.06;38.33;102198.53;4808614;29;20146;-38
2021/07/20 10:20:59;;;;;;;30.35;12.95;;;;;;;26.19;37.47;102191.22;4813820;29;20145;-38
2021/07/20 10:23:42;;;;;;;31.38;12.68;;;;;;;26.22;37.39;102185.38;4811298;29;20574;-38
2021/07/20 10:26:24;;;;;;;29.42;11.85;;;;;;;26.27;37.67;102189.31;4821838;29;20488;-38
2021/07/20 10:29:03;;;;;;;33.30;12.68;;;;;;;26.30;37.27;102184.28;4813566;29;20058;-38
2021/07/20 10:31:50;;;;;;;31.83;13.00;;;;;;;26.40;37.33;102190.03;4814213;29;20929;-38
2021/07/20 10:34:19;;;;;;;29.15;12.70;;;;;;;26.48;36.88;102185.41;4809103;29;20089;-38
2021/07/20 10:37:09;;;;;;;31.30;12.55;;;;;;;26.63;36.22;102186.75;4814366;29;20082;-38
2021/07/20 10:39:42;;;;;;;33.50;12.98;;;;;;;26.90;36.83;102189.19;4810454;29;20085;-38
2021/07/20 10:42:08;;;;;;;38.92;14.63;;;;;;;26.72;35.51;102187.28;4808351;29;20073;-38
2021/07/20 10:44:53;;;;;;;35.70;13.23;;;;;;;26.86;35.26;102184.47;4819915;29;20054;-38
2021/07/20 10:47:24;;;;;;;28.48;12.00;;;;;;;27.02;36.51;102186.59;4809511;29;20134;-38
2021/07/20 10:49:58;;;;;;;32.10;12.63;;;;;;;27.07;37.02;102185.91;4816715;29;20093;-38
2021/07/20 10:52:48;;;;;;;31.17;12.82;;;;;;;27.25;36.59;102187.78;4810576;29;20090;-38
2021/07/20 10:55:34;;;;;;;31.98;13.43;;;;;;;27.42;35.92;102178.91;4813812;29;20157;-38
2021/07/20 10:58:26;;;;;;;34.45;12.75;;;;;;;27.30;36.37;102178.00;4809516;29;20054;-39
2021/07/20 11:01:06;;;;;;;31.90;12.55;;;;;;;27.01;37.03;102184.91;4810499;29;20567;-39
2021/07/20 11:03:58;;;;;;;28.65;12.63;;;;;;;27.23;35.95;102180.75;4799118;29;20060;-40
2021/07/20 11:06:26;;;;;;;34.17;12.75;;;;;;;27.42;35.83;102181.59;4815484;29;20190;-40
2021/07/20 11:08:57;;;;;;;;;;;;;;;27.51;36.11;102173.19;4811460;29;20108;-40
2021/07/20 11:11:30;;;;;;;28.10;12.15;;;;;;;27.47;35.38;102172.81;4815658;29;20393;-39
2021/07/20 11:13:59;;;;;;;32.70;13.70;;;;;;;27.48;34.88;102168.25;4806160;29;20089;-39
2021/07/20 11:16:30;;;;;;;28.10;13.57;;;;;;;27.55;34.93;102167.13;4820231;29;20084;-39
2021/07/20 11:18:59;;;;;;;30.50;12.88;;;;;;;27.71;35.29;102167.53;4818480;29;20073;-38
2021/07/20 11:21:27;;;;;;;31.88;13.63;;;;;;;27.49;35.10;102170.72;4812492;29;20096;-39
2021/07/20 11:23:57;;;;;;;30.13;13.07;;;;;;;27.35;35.61;102167.38;4815690;29;20164;-39
2021/07/20 11:26:26;;;;;;;32.60;13.10;;;;;;;27.57;35.38;102167.72;4810077;29;20110;-39
2021/07/20 11:28:54;;;;;;;33.92;13.57;;;;;;;27.82;35.63;102172.16;4813610;29;20158;-39
2021/07/20 11:31:26;;;;;;;32.17;13.93;;;;;;;28.07;35.27;102163.09;4810880;29;20467;-39
2021/07/20 11:34:08;;;;;;;32.17;13.18;;;;;;;28.31;34.69;102164.78;4816697;29;20062;-39
2021/07/20 11:36:40;;;;;;;30.95;13.50;;;;;;;28.00;33.71;102163.19;4811489;29;20058;-39